sensor_id;sensor_type;location;lat;lon;timestamp;P1;durP1;ratioP1;P2;durP2;ratioP2
82711;SDS011;72433;41.992;21.438;2024-02-21T00:01:54;30.35;;;20.58;;
82711;SDS011;72433;41.992;21.438;2024-02-21T00:04:20;31.35;;;18.67;;
82711;SDS011;72433;41.992;21.438;2024-02-21T00:06:46;30.40;;;20.05;;
82711;SDS011;72433;41.992;21.438;2024-02-21T00:09:12;32.00;;;20.60;;
82711;SDS011;72433;41.992;21.438;2024-02-21T00:11:38;31.20;;;19.70;;
82711;SDS011;72433;41.992;21.438;2024-02-21T00:14:04;29.83;;;19.73;;
82711;SDS011;72433;41.992;21.438;2024-02-21T00:16:30;29.33;;;20.50;;
82711;SDS011;72433;41.992;21.438;2024-02-21T00:18:59;28.95;;;19.15;;
82711;SDS011;72433;41.992;21.438;2024-02-21T00:21:25;29.67;;;20.42;;
82711;SDS011;72433;41.992;21.438;2024-02-21T00:23:51;23.40;;;14.68;;
82711;SDS011;72433;41.992;21.438;2024-02-21T00:26:17;20.45;;;13.27;;
82711;SDS011;72433;41.992;21.438;2024-02-21T00:28:43;20.52;;;13.75;;
82711;SDS011;72433;41.992;21.438;2024-02-21T00:31:10;20.38;;;12.27;;
82711;SDS011;72433;41.992;21.438;2024-02-21T00:33:36;21.35;;;13.07;;
82711;SDS011;72433;41.992;21.438;2024-02-21T00:36:02;26.27;;;14.10;;
82711;SDS011;72433;41.992;21.438;2024-02-21T00:38:28;18.90;;;13.02;;
82711;SDS011;72433;41.992;21.438;2024-02-21T00:40:54;21.35;;;13.07;;
82711;SDS011;72433;41.992;21.438;2024-02-21T00:43:20;31.20;;;18.67;;
82711;SDS011;72433;41.992;21.438;2024-02-21T00:45:49;33.03;;;18.48;;
82711;SDS011;72433;41.992;21.438;2024-02-21T00:48:15;24.35;;;15.73;;
82711;SDS011;72433;41.992;21.438;2024-02-21T00:50:41;21.75;;;14.32;;
82711;SDS011;72433;41.992;21.438;2024-02-21T00:53:07;19.10;;;12.00;;
82711;SDS011;72433;41.992;21.438;2024-02-21T00:55:35;19.15;;;11.95;;
82711;SDS011;72433;41.992;21.438;2024-02-21T00:58:01;19.92;;;12.68;;
82711;SDS011;72433;41.992;21.438;2024-02-21T01:00:27;21.95;;;13.48;;
82711;SDS011;72433;41.992;21.438;2024-02-21T01:02:53;21.10;;;13.07;;
82711;SDS011;72433;41.992;21.438;2024-02-21T01:05:19;21.73;;;14.23;;
82711;SDS011;72433;41.992;21.438;2024-02-21T01:07:45;23.73;;;14.43;;
82711;SDS011;72433;41.992;21.438;2024-02-21T01:10:11;23.63;;;14.82;;
82711;SDS011;72433;41.992;21.438;2024-02-21T01:12:37;24.38;;;15.07;;
82711;SDS011;72433;41.992;21.438;2024-02-21T01:15:03;23.73;;;15.45;;
82711;SDS011;72433;41.992;21.438;2024-02-21T01:17:30;24.52;;;15.98;;
82711;SDS011;72433;41.992;21.438;2024-02-21T01:19:56;25.30;;;15.70;;
82711;SDS011;72433;41.992;21.438;2024-02-21T01:22:22;24.83;;;16.15;;
82711;SDS011;72433;41.992;21.438;2024-02-21T01:24:48;25.50;;;15.98;;
82711;SDS011;72433;41.992;21.438;2024-02-21T01:27:14;23.15;;;14.75;;
82711;SDS011;72433;41.992;21.438;2024-02-21T01:29:40;22.25;;;15.38;;
82711;SDS011;72433;41.992;21.438;2024-02-21T01:32:06;26.58;;;16.45;;
82711;SDS011;72433;41.992;21.438;2024-02-21T01:34:33;29.38;;;17.10;;
82711;SDS011;72433;41.992;21.438;2024-02-21T01:36:59;24.80;;;15.73;;
82711;SDS011;72433;41.992;21.438;2024-02-21T01:39:29;24.77;;;15.73;;
82711;SDS011;72433;41.992;21.438;2024-02-21T01:41:55;21.98;;;14.07;;
82711;SDS011;72433;41.992;21.438;2024-02-21T01:44:21;18.02;;;12.93;;
82711;SDS011;72433;41.992;21.438;2024-02-21T01:46:47;18.63;;;11.32;;
82711;SDS011;72433;41.992;21.438;2024-02-21T01:49:13;17.23;;;10.98;;
82711;SDS011;72433;41.992;21.438;2024-02-21T01:51:39;15.45;;;9.57;;
82711;SDS011;72433;41.992;21.438;2024-02-21T01:54:06;12.23;;;8.90;;
82711;SDS011;72433;41.992;21.438;2024-02-21T01:56:32;14.38;;;10.00;;
82711;SDS011;72433;41.992;21.438;2024-02-21T01:58:58;15.40;;;9.60;;
82711;SDS011;72433;41.992;21.438;2024-02-21T02:01:25;15.43;;;9.65;;
82711;SDS011;72433;41.992;21.438;2024-02-21T02:03:51;18.27;;;10.15;;
82711;SDS011;72433;41.992;21.438;2024-02-21T02:06:17;16.38;;;9.88;;
82711;SDS011;72433;41.992;21.438;2024-02-21T02:08:43;16.35;;;9.68;;
82711;SDS011;72433;41.992;21.438;2024-02-21T02:11:10;17.75;;;10.15;;
82711;SDS011;72433;41.992;21.438;2024-02-21T02:13:36;16.75;;;9.70;;
82711;SDS011;72433;41.992;21.438;2024-02-21T02:16:03;12.73;;;8.57;;
82711;SDS011;72433;41.992;21.438;2024-02-21T02:18:29;14.45;;;10.35;;
82711;SDS011;72433;41.992;21.438;2024-02-21T02:20:58;17.88;;;10.07;;
82711;SDS011;72433;41.992;21.438;2024-02-21T02:25:50;15.80;;;9.80;;
82711;SDS011;72433;41.992;21.438;2024-02-21T02:28:20;15.40;;;9.88;;
82711;SDS011;72433;41.992;21.438;2024-02-21T02:30:46;14.95;;;9.82;;
82711;SDS011;72433;41.992;21.438;2024-02-21T02:33:13;16.00;;;10.32;;
82711;SDS011;72433;41.992;21.438;2024-02-21T02:35:39;15.95;;;10.45;;
82711;SDS011;72433;41.992;21.438;2024-02-21T02:38:05;15.13;;;10.75;;
82711;SDS011;72433;41.992;21.438;2024-02-21T02:40:35;15.27;;;10.20;;
82711;SDS011;72433;41.992;21.438;2024-02-21T02:43:01;18.30;;;10.02;;
82711;SDS011;72433;41.992;21.438;2024-02-21T02:45:28;15.77;;;9.07;;
82711;SDS011;72433;41.992;21.438;2024-02-21T02:47:55;18.48;;;11.20;;
82711;SDS011;72433;41.992;21.438;2024-02-21T02:50:22;19.98;;;12.05;;
82711;SDS011;72433;41.992;21.438;2024-02-21T02:52:48;22.67;;;14.50;;
82711;SDS011;72433;41.992;21.438;2024-02-21T02:55:14;26.67;;;16.25;;
82711;SDS011;72433;41.992;21.438;2024-02-21T02:57:41;25.58;;;16.73;;
82711;SDS011;72433;41.992;21.438;2024-02-21T03:00:07;23.27;;;15.30;;
82711;SDS011;72433;41.992;21.438;2024-02-21T03:02:35;27.05;;;14.32;;
82711;SDS011;72433;41.992;21.438;2024-02-21T03:05:02;27.17;;;16.40;;
82711;SDS011;72433;41.992;21.438;2024-02-21T03:07:37;22.02;;;14.77;;
82711;SDS011;72433;41.992;21.438;2024-02-21T03:10:03;25.63;;;16.58;;
82711;SDS011;72433;41.992;21.438;2024-02-21T03:12:29;24.50;;;15.65;;
82711;SDS011;72433;41.992;21.438;2024-02-21T03:14:55;26.67;;;15.25;;
82711;SDS011;72433;41.992;21.438;2024-02-21T03:17:21;24.45;;;15.90;;
82711;SDS011;72433;41.992;21.438;2024-02-21T03:19:48;24.27;;;15.20;;
82711;SDS011;72433;41.992;21.438;2024-02-21T03:22:15;22.33;;;14.55;;
82711;SDS011;72433;41.992;21.438;2024-02-21T03:24:41;23.45;;;13.40;;
82711;SDS011;72433;41.992;21.438;2024-02-21T03:27:07;25.92;;;15.52;;
82711;SDS011;72433;41.992;21.438;2024-02-21T03:29:33;23.45;;;15.45;;
82711;SDS011;72433;41.992;21.438;2024-02-21T03:31:59;30.45;;;16.38;;
82711;SDS011;72433;41.992;21.438;2024-02-21T03:34:25;24.65;;;15.98;;
82711;SDS011;72433;41.992;21.438;2024-02-21T03:36:51;30.70;;;16.23;;
82711;SDS011;72433;41.992;21.438;2024-02-21T03:39:18;26.88;;;16.42;;
82711;SDS011;72433;41.992;21.438;2024-02-21T03:41:44;29.83;;;16.98;;
82711;SDS011;72433;41.992;21.438;2024-02-21T03:44:10;29.83;;;15.98;;
82711;SDS011;72433;41.992;21.438;2024-02-21T03:46:36;28.88;;;16.80;;
82711;SDS011;72433;41.992;21.438;2024-02-21T03:49:02;25.88;;;15.30;;
82711;SDS011;72433;41.992;21.438;2024-02-21T03:51:28;27.52;;;15.68;;
82711;SDS011;72433;41.992;21.438;2024-02-21T03:53:54;24.77;;;15.38;;
82711;SDS011;72433;41.992;21.438;2024-02-21T03:56:20;28.88;;;16.63;;
82711;SDS011;72433;41.992;21.438;2024-02-21T03:58:46;31.35;;;17.92;;
82711;SDS011;72433;41.992;21.438;2024-02-21T04:01:14;28.48;;;17.42;;
82711;SDS011;72433;41.992;21.438;2024-02-21T04:03:41;29.75;;;16.80;;
82711;SDS011;72433;41.992;21.438;2024-02-21T04:06:08;30.48;;;18.33;;
82711;SDS011;72433;41.992;21.438;2024-02-21T04:08:34;33.17;;;17.52;;
82711;SDS011;72433;41.992;21.438;2024-02-21T04:11:01;29.35;;;16.95;;
82711;SDS011;72433;41.992;21.438;2024-02-21T04:13:27;28.23;;;17.75;;
82711;SDS011;72433;41.992;21.438;2024-02-21T04:15:53;26.35;;;17.05;;
82711;SDS011;72433;41.992;21.438;2024-02-21T04:18:19;28.77;;;16.83;;
82711;SDS011;72433;41.992;21.438;2024-02-21T04:20:45;28.38;;;17.20;;
82711;SDS011;72433;41.992;21.438;2024-02-21T04:23:11;26.13;;;16.35;;
82711;SDS011;72433;41.992;21.438;2024-02-21T04:25:37;27.10;;;15.63;;
82711;SDS011;72433;41.992;21.438;2024-02-21T04:28:04;31.02;;;15.38;;
82711;SDS011;72433;41.992;21.438;2024-02-21T04:30:30;26.00;;;16.02;;
82711;SDS011;72433;41.992;21.438;2024-02-21T04:32:56;28.15;;;16.38;;
82711;SDS011;72433;41.992;21.438;2024-02-21T04:35:22;31.65;;;17.45;;
82711;SDS011;72433;41.992;21.438;2024-02-21T04:37:49;28.63;;;16.13;;
82711;SDS011;72433;41.992;21.438;2024-02-21T04:40:15;23.15;;;14.82;;
82711;SDS011;72433;41.992;21.438;2024-02-21T04:42:42;25.70;;;17.08;;
82711;SDS011;72433;41.992;21.438;2024-02-21T04:45:08;27.73;;;15.45;;
82711;SDS011;72433;41.992;21.438;2024-02-21T04:47:34;25.48;;;15.15;;
82711;SDS011;72433;41.992;21.438;2024-02-21T04:50:00;26.30;;;15.85;;
82711;SDS011;72433;41.992;21.438;2024-02-21T04:52:26;28.58;;;17.25;;
82711;SDS011;72433;41.992;21.438;2024-02-21T04:54:52;29.88;;;16.70;;
82711;SDS011;72433;41.992;21.438;2024-02-21T04:57:19;29.23;;;16.42;;
82711;SDS011;72433;41.992;21.438;2024-02-21T04:59:45;26.85;;;16.23;;
82711;SDS011;72433;41.992;21.438;2024-02-21T05:02:12;27.05;;;17.25;;
82711;SDS011;72433;41.992;21.438;2024-02-21T05:04:38;27.42;;;15.05;;
82711;SDS011;72433;41.992;21.438;2024-02-21T05:07:06;26.80;;;14.30;;
82711;SDS011;72433;41.992;21.438;2024-02-21T05:09:32;26.67;;;16.45;;
82711;SDS011;72433;41.992;21.438;2024-02-21T05:11:58;29.13;;;15.88;;
82711;SDS011;72433;41.992;21.438;2024-02-21T05:14:25;30.50;;;17.67;;
82711;SDS011;72433;41.992;21.438;2024-02-21T05:16:52;25.85;;;15.85;;
82711;SDS011;72433;41.992;21.438;2024-02-21T05:19:18;26.48;;;15.98;;
82711;SDS011;72433;41.992;21.438;2024-02-21T05:21:44;24.75;;;15.63;;
82711;SDS011;72433;41.992;21.438;2024-02-21T05:24:10;27.92;;;16.15;;
82711;SDS011;72433;41.992;21.438;2024-02-21T05:26:37;25.33;;;15.98;;
82711;SDS011;72433;41.992;21.438;2024-02-21T05:29:03;27.67;;;15.93;;
82711;SDS011;72433;41.992;21.438;2024-02-21T05:34:14;29.38;;;16.92;;
82711;SDS011;72433;41.992;21.438;2024-02-21T05:36:40;29.70;;;17.38;;
82711;SDS011;72433;41.992;21.438;2024-02-21T05:39:06;26.48;;;14.45;;
82711;SDS011;72433;41.992;21.438;2024-02-21T05:41:32;31.55;;;17.35;;
82711;SDS011;72433;41.992;21.438;2024-02-21T05:43:58;29.90;;;16.65;;
82711;SDS011;72433;41.992;21.438;2024-02-21T05:46:24;27.50;;;17.27;;
82711;SDS011;72433;41.992;21.438;2024-02-21T05:48:50;26.45;;;15.70;;
82711;SDS011;72433;41.992;21.438;2024-02-21T05:51:16;28.30;;;17.40;;
82711;SDS011;72433;41.992;21.438;2024-02-21T05:53:43;28.20;;;15.98;;
82711;SDS011;72433;41.992;21.438;2024-02-21T05:56:12;29.13;;;16.50;;
82711;SDS011;72433;41.992;21.438;2024-02-21T05:58:38;32.45;;;17.30;;
82711;SDS011;72433;41.992;21.438;2024-02-21T06:01:04;31.25;;;18.00;;
82711;SDS011;72433;41.992;21.438;2024-02-21T06:03:32;29.90;;;18.58;;
82711;SDS011;72433;41.992;21.438;2024-02-21T06:05:59;28.90;;;17.95;;
82711;SDS011;72433;41.992;21.438;2024-02-21T06:08:25;32.33;;;19.83;;
82711;SDS011;72433;41.992;21.438;2024-02-21T06:10:51;29.33;;;19.15;;
82711;SDS011;72433;41.992;21.438;2024-02-21T06:13:19;32.40;;;18.95;;
82711;SDS011;72433;41.992;21.438;2024-02-21T06:15:46;42.63;;;25.30;;
82711;SDS011;72433;41.992;21.438;2024-02-21T06:18:15;44.22;;;25.73;;
82711;SDS011;72433;41.992;21.438;2024-02-21T06:20:44;47.88;;;26.25;;
82711;SDS011;72433;41.992;21.438;2024-02-21T06:23:26;41.17;;;22.23;;
82711;SDS011;72433;41.992;21.438;2024-02-21T06:28:58;29.73;;;17.77;;
82711;SDS011;72433;41.992;21.438;2024-02-21T06:31:52;29.05;;;17.15;;
82711;SDS011;72433;41.992;21.438;2024-02-21T07:13:35;17.88;;;13.77;;
82711;SDS011;72433;41.992;21.438;2024-02-21T07:19:23;20.67;;;13.75;;
82711;SDS011;72433;41.992;21.438;2024-02-21T07:39:11;24.25;;;14.35;;
82711;SDS011;72433;41.992;21.438;2024-02-21T07:41:40;20.08;;;13.85;;
82711;SDS011;72433;41.992;21.438;2024-02-21T09:30:20;27.63;;;16.42;;
82711;SDS011;72433;41.992;21.438;2024-02-21T09:32:54;31.23;;;14.90;;
82711;SDS011;72433;41.992;21.438;2024-02-21T09:38:24;37.75;;;15.75;;
82711;SDS011;72433;41.992;21.438;2024-02-21T09:40:58;29.08;;;15.93;;
82711;SDS011;72433;41.992;21.438;2024-02-21T09:43:51;24.77;;;15.18;;
82711;SDS011;72433;41.992;21.438;2024-02-21T09:49:31;24.98;;;13.18;;
82711;SDS011;72433;41.992;21.438;2024-02-21T09:55:00;23.23;;;11.10;;
82711;SDS011;72433;41.992;21.438;2024-02-21T09:58:02;20.63;;;9.50;;
82711;SDS011;72433;41.992;21.438;2024-02-21T10:00:24;18.75;;;9.55;;
82711;SDS011;72433;41.992;21.438;2024-02-21T13:23:48;11.60;;;5.57;;
82711;SDS011;72433;41.992;21.438;2024-02-21T13:32:36;12.07;;;5.45;;
82711;SDS011;72433;41.992;21.438;2024-02-21T14:20:07;11.50;;;7.80;;
82711;SDS011;72433;41.992;21.438;2024-02-21T14:22:33;12.30;;;6.10;;
82711;SDS011;72433;41.992;21.438;2024-02-21T14:25:02;9.32;;;5.68;;
82711;SDS011;72433;41.992;21.438;2024-02-21T14:27:30;13.60;;;6.28;;
82711;SDS011;72433;41.992;21.438;2024-02-21T14:29:57;11.18;;;5.75;;
82711;SDS011;72433;41.992;21.438;2024-02-21T14:32:23;9.65;;;6.10;;
82711;SDS011;72433;41.992;21.438;2024-02-21T14:37:41;9.95;;;6.18;;
82711;SDS011;72433;41.992;21.438;2024-02-21T14:40:25;10.80;;;7.00;;
82711;SDS011;72433;41.992;21.438;2024-02-21T14:46:11;10.73;;;5.30;;
82711;SDS011;72433;41.992;21.438;2024-02-21T14:51:43;12.30;;;5.05;;
82711;SDS011;72433;41.992;21.438;2024-02-21T14:57:15;10.18;;;5.40;;
82711;SDS011;72433;41.992;21.438;2024-02-21T14:59:41;9.25;;;4.60;;
82711;SDS011;72433;41.992;21.438;2024-02-21T15:02:21;8.25;;;4.80;;
82711;SDS011;72433;41.992;21.438;2024-02-21T15:04:51;9.27;;;5.95;;
82711;SDS011;72433;41.992;21.438;2024-02-21T15:07:21;11.32;;;6.35;;
82711;SDS011;72433;41.992;21.438;2024-02-21T15:09:53;9.07;;;6.40;;
82711;SDS011;72433;41.992;21.438;2024-02-21T15:12:28;10.38;;;6.20;;
82711;SDS011;72433;41.992;21.438;2024-02-21T15:17:49;11.43;;;5.72;;
82711;SDS011;72433;41.992;21.438;2024-02-21T15:20:20;16.17;;;7.57;;
82711;SDS011;72433;41.992;21.438;2024-02-21T15:22:46;11.77;;;7.00;;
82711;SDS011;72433;41.992;21.438;2024-02-21T15:25:13;15.85;;;6.60;;
82711;SDS011;72433;41.992;21.438;2024-02-21T15:28:08;9.07;;;6.38;;
82711;SDS011;72433;41.992;21.438;2024-02-21T15:33:43;11.15;;;7.43;;
82711;SDS011;72433;41.992;21.438;2024-02-21T15:36:18;11.65;;;6.18;;
82711;SDS011;72433;41.992;21.438;2024-02-21T15:38:45;9.80;;;5.85;;
82711;SDS011;72433;41.992;21.438;2024-02-21T15:41:12;11.82;;;6.47;;
82711;SDS011;72433;41.992;21.438;2024-02-21T15:43:57;11.68;;;7.60;;
82711;SDS011;72433;41.992;21.438;2024-02-21T15:46:55;15.55;;;7.88;;
82711;SDS011;72433;41.992;21.438;2024-02-21T15:49:21;13.80;;;8.00;;
82711;SDS011;72433;41.992;21.438;2024-02-21T15:51:48;13.38;;;8.07;;
82711;SDS011;72433;41.992;21.438;2024-02-21T15:54:14;14.25;;;8.77;;
82711;SDS011;72433;41.992;21.438;2024-02-21T15:56:43;14.07;;;9.13;;
82711;SDS011;72433;41.992;21.438;2024-02-21T16:05:28;20.38;;;10.43;;
82711;SDS011;72433;41.992;21.438;2024-02-21T16:07:54;18.08;;;9.98;;
82711;SDS011;72433;41.992;21.438;2024-02-21T16:10:23;15.32;;;6.95;;
82711;SDS011;72433;41.992;21.438;2024-02-21T16:13:16;15.57;;;8.13;;
82711;SDS011;72433;41.992;21.438;2024-02-21T16:15:45;18.67;;;7.30;;
82711;SDS011;72433;41.992;21.438;2024-02-21T16:18:21;11.98;;;7.18;;
82711;SDS011;72433;41.992;21.438;2024-02-21T16:20:52;15.25;;;8.00;;
82711;SDS011;72433;41.992;21.438;2024-02-21T16:23:42;17.25;;;7.38;;
82711;SDS011;72433;41.992;21.438;2024-02-21T16:32:11;22.35;;;12.63;;
82711;SDS011;72433;41.992;21.438;2024-02-21T16:34:40;21.35;;;12.50;;
82711;SDS011;72433;41.992;21.438;2024-02-21T16:37:26;21.83;;;11.80;;
82711;SDS011;72433;41.992;21.438;2024-02-21T16:45:49;14.95;;;8.57;;
82711;SDS011;72433;41.992;21.438;2024-02-21T16:48:23;19.80;;;10.20;;
82711;SDS011;72433;41.992;21.438;2024-02-21T16:50:50;16.45;;;9.18;;
82711;SDS011;72433;41.992;21.438;2024-02-21T16:53:27;15.52;;;10.88;;
82711;SDS011;72433;41.992;21.438;2024-02-21T16:55:53;17.92;;;11.30;;
82711;SDS011;72433;41.992;21.438;2024-02-21T17:01:41;21.40;;;12.27;;
82711;SDS011;72433;41.992;21.438;2024-02-21T17:10:05;13.65;;;9.95;;
82711;SDS011;72433;41.992;21.438;2024-02-21T17:15:54;16.92;;;10.98;;
82711;SDS011;72433;41.992;21.438;2024-02-21T17:18:20;23.00;;;10.80;;
82711;SDS011;72433;41.992;21.438;2024-02-21T17:20:48;25.02;;;12.30;;
82711;SDS011;72433;41.992;21.438;2024-02-21T17:29:35;39.40;;;17.10;;
82711;SDS011;72433;41.992;21.438;2024-02-21T17:40:50;37.20;;;22.48;;
82711;SDS011;72433;41.992;21.438;2024-02-21T17:43:33;33.03;;;19.80;;
82711;SDS011;72433;41.992;21.438;2024-02-21T17:46:00;40.95;;;21.15;;
82711;SDS011;72433;41.992;21.438;2024-02-21T17:48:26;34.03;;;20.38;;
82711;SDS011;72433;41.992;21.438;2024-02-21T17:50:52;35.08;;;21.85;;
82711;SDS011;72433;41.992;21.438;2024-02-21T17:53:34;32.30;;;20.33;;
82711;SDS011;72433;41.992;21.438;2024-02-21T17:56:00;35.00;;;22.55;;
82711;SDS011;72433;41.992;21.438;2024-02-21T17:58:30;38.88;;;23.75;;
82711;SDS011;72433;41.992;21.438;2024-02-21T18:01:03;38.83;;;23.45;;
82711;SDS011;72433;41.992;21.438;2024-02-21T18:03:30;48.00;;;23.65;;
82711;SDS011;72433;41.992;21.438;2024-02-21T18:06:11;41.13;;;26.45;;
82711;SDS011;72433;41.992;21.438;2024-02-21T18:08:37;38.78;;;22.50;;
82711;SDS011;72433;41.992;21.438;2024-02-21T18:11:06;39.35;;;27.08;;
82711;SDS011;72433;41.992;21.438;2024-02-21T18:13:39;40.72;;;25.23;;
82711;SDS011;72433;41.992;21.438;2024-02-21T18:16:05;43.17;;;25.55;;
82711;SDS011;72433;41.992;21.438;2024-02-21T18:18:33;42.95;;;25.17;;
82711;SDS011;72433;41.992;21.438;2024-02-21T18:21:03;29.23;;;18.77;;
82711;SDS011;72433;41.992;21.438;2024-02-21T18:23:40;38.05;;;24.67;;
82711;SDS011;72433;41.992;21.438;2024-02-21T18:26:06;38.90;;;22.88;;
82711;SDS011;72433;41.992;21.438;2024-02-21T18:28:34;39.75;;;24.88;;
82711;SDS011;72433;41.992;21.438;2024-02-21T18:34:11;47.67;;;25.65;;
82711;SDS011;72433;41.992;21.438;2024-02-21T18:36:38;37.30;;;22.92;;
82711;SDS011;72433;41.992;21.438;2024-02-21T18:39:04;47.03;;;26.50;;
82711;SDS011;72433;41.992;21.438;2024-02-21T18:41:31;44.67;;;26.38;;
82711;SDS011;72433;41.992;21.438;2024-02-21T18:43:58;40.55;;;23.05;;
82711;SDS011;72433;41.992;21.438;2024-02-21T18:46:25;36.53;;;22.55;;
82711;SDS011;72433;41.992;21.438;2024-02-21T18:48:51;48.08;;;26.65;;
82711;SDS011;72433;41.992;21.438;2024-02-21T18:51:17;34.05;;;20.33;;
82711;SDS011;72433;41.992;21.438;2024-02-21T18:53:43;27.95;;;17.48;;
82711;SDS011;72433;41.992;21.438;2024-02-21T18:56:09;27.92;;;17.38;;
82711;SDS011;72433;41.992;21.438;2024-02-21T18:58:36;28.80;;;17.75;;
82711;SDS011;72433;41.992;21.438;2024-02-21T19:01:04;34.83;;;19.77;;
82711;SDS011;72433;41.992;21.438;2024-02-21T19:03:33;39.55;;;20.50;;
82711;SDS011;72433;41.992;21.438;2024-02-21T19:06:02;31.73;;;17.08;;
82711;SDS011;72433;41.992;21.438;2024-02-21T19:08:28;25.63;;;17.25;;
82711;SDS011;72433;41.992;21.438;2024-02-21T19:10:57;25.95;;;16.00;;
82711;SDS011;72433;41.992;21.438;2024-02-21T19:13:26;29.10;;;17.40;;
82711;SDS011;72433;41.992;21.438;2024-02-21T19:15:52;27.77;;;16.27;;
82711;SDS011;72433;41.992;21.438;2024-02-21T19:18:18;28.15;;;15.70;;
82711;SDS011;72433;41.992;21.438;2024-02-21T19:20:45;27.42;;;15.20;;
82711;SDS011;72433;41.992;21.438;2024-02-21T19:23:12;23.70;;;16.38;;
82711;SDS011;72433;41.992;21.438;2024-02-21T19:25:41;26.73;;;16.05;;
82711;SDS011;72433;41.992;21.438;2024-02-21T19:28:15;27.75;;;15.75;;
82711;SDS011;72433;41.992;21.438;2024-02-21T19:30:43;34.10;;;18.65;;
82711;SDS011;72433;41.992;21.438;2024-02-21T19:33:09;28.92;;;17.27;;
82711;SDS011;72433;41.992;21.438;2024-02-21T19:35:35;34.85;;;19.27;;
82711;SDS011;72433;41.992;21.438;2024-02-21T19:38:02;32.47;;;18.48;;
82711;SDS011;72433;41.992;21.438;2024-02-21T19:40:28;26.75;;;15.43;;
82711;SDS011;72433;41.992;21.438;2024-02-21T19:42:56;26.27;;;16.10;;
82711;SDS011;72433;41.992;21.438;2024-02-21T19:45:22;26.73;;;15.15;;
82711;SDS011;72433;41.992;21.438;2024-02-21T19:47:50;22.75;;;13.85;;
82711;SDS011;72433;41.992;21.438;2024-02-21T19:50:16;16.73;;;12.13;;
82711;SDS011;72433;41.992;21.438;2024-02-21T19:52:54;15.90;;;10.95;;
82711;SDS011;72433;41.992;21.438;2024-02-21T19:55:21;17.67;;;10.45;;
82711;SDS011;72433;41.992;21.438;2024-02-21T19:57:47;17.45;;;11.18;;
82711;SDS011;72433;41.992;21.438;2024-02-21T20:00:14;17.33;;;11.98;;
82711;SDS011;72433;41.992;21.438;2024-02-21T20:02:40;17.58;;;10.85;;
82711;SDS011;72433;41.992;21.438;2024-02-21T20:05:07;14.25;;;10.25;;
82711;SDS011;72433;41.992;21.438;2024-02-21T20:07:33;17.25;;;10.70;;
82711;SDS011;72433;41.992;21.438;2024-02-21T20:10:00;16.77;;;10.68;;
82711;SDS011;72433;41.992;21.438;2024-02-21T20:12:26;15.27;;;10.10;;
82711;SDS011;72433;41.992;21.438;2024-02-21T20:14:52;12.82;;;8.38;;
82711;SDS011;72433;41.992;21.438;2024-02-21T20:17:19;16.23;;;10.45;;
82711;SDS011;72433;41.992;21.438;2024-02-21T20:19:45;15.25;;;10.48;;
82711;SDS011;72433;41.992;21.438;2024-02-21T20:22:11;15.80;;;9.80;;
82711;SDS011;72433;41.992;21.438;2024-02-21T20:24:37;15.85;;;9.68;;
82711;SDS011;72433;41.992;21.438;2024-02-21T20:27:04;14.52;;;10.05;;
82711;SDS011;72433;41.992;21.438;2024-02-21T20:29:30;18.27;;;9.75;;
82711;SDS011;72433;41.992;21.438;2024-02-21T20:31:56;13.20;;;9.50;;
82711;SDS011;72433;41.992;21.438;2024-02-21T20:34:31;16.35;;;9.38;;
82711;SDS011;72433;41.992;21.438;2024-02-21T20:36:58;15.13;;;8.75;;
82711;SDS011;72433;41.992;21.438;2024-02-21T20:39:24;13.98;;;9.80;;
82711;SDS011;72433;41.992;21.438;2024-02-21T20:41:53;17.77;;;9.82;;
82711;SDS011;72433;41.992;21.438;2024-02-21T20:44:20;15.60;;;8.95;;
82711;SDS011;72433;41.992;21.438;2024-02-21T20:46:46;25.23;;;9.38;;
82711;SDS011;72433;41.992;21.438;2024-02-21T20:49:13;12.43;;;8.02;;
82711;SDS011;72433;41.992;21.438;2024-02-21T20:51:39;12.68;;;8.23;;
82711;SDS011;72433;41.992;21.438;2024-02-21T20:54:05;14.05;;;8.98;;
82711;SDS011;72433;41.992;21.438;2024-02-21T20:56:31;13.07;;;9.07;;
82711;SDS011;72433;41.992;21.438;2024-02-21T20:58:57;11.68;;;9.13;;
82711;SDS011;72433;41.992;21.438;2024-02-21T21:01:23;14.18;;;8.77;;
82711;SDS011;72433;41.992;21.438;2024-02-21T21:03:49;12.70;;;8.23;;
82711;SDS011;72433;41.992;21.438;2024-02-21T21:06:15;12.02;;;8.10;;
82711;SDS011;72433;41.992;21.438;2024-02-21T21:08:41;13.00;;;8.80;;
82711;SDS011;72433;41.992;21.438;2024-02-21T21:11:07;11.68;;;8.45;;
82711;SDS011;72433;41.992;21.438;2024-02-21T21:13:33;12.23;;;6.90;;
82711;SDS011;72433;41.992;21.438;2024-02-21T21:16:00;9.82;;;7.65;;
82711;SDS011;72433;41.992;21.438;2024-02-21T21:18:26;11.35;;;7.57;;
82711;SDS011;72433;41.992;21.438;2024-02-21T21:20:55;13.32;;;7.25;;
82711;SDS011;72433;41.992;21.438;2024-02-21T21:26:24;10.20;;;6.90;;
82711;SDS011;72433;41.992;21.438;2024-02-21T21:28:50;10.05;;;6.60;;
82711;SDS011;72433;41.992;21.438;2024-02-21T21:31:21;9.05;;;5.63;;
82711;SDS011;72433;41.992;21.438;2024-02-21T21:33:47;11.13;;;7.28;;
82711;SDS011;72433;41.992;21.438;2024-02-21T21:36:13;8.00;;;6.13;;
82711;SDS011;72433;41.992;21.438;2024-02-21T21:38:39;9.82;;;5.95;;
82711;SDS011;72433;41.992;21.438;2024-02-21T21:41:06;8.20;;;6.07;;
82711;SDS011;72433;41.992;21.438;2024-02-21T21:43:32;8.48;;;5.65;;
82711;SDS011;72433;41.992;21.438;2024-02-21T21:45:58;7.60;;;6.07;;
82711;SDS011;72433;41.992;21.438;2024-02-21T21:48:24;7.85;;;5.55;;
82711;SDS011;72433;41.992;21.438;2024-02-21T21:50:50;7.90;;;5.15;;
82711;SDS011;72433;41.992;21.438;2024-02-21T21:53:16;8.50;;;5.65;;
82711;SDS011;72433;41.992;21.438;2024-02-21T21:55:42;10.27;;;5.65;;
82711;SDS011;72433;41.992;21.438;2024-02-21T21:58:08;7.70;;;5.55;;
82711;SDS011;72433;41.992;21.438;2024-02-21T22:00:38;9.38;;;6.07;;
82711;SDS011;72433;41.992;21.438;2024-02-21T22:03:04;6.78;;;4.68;;
82711;SDS011;72433;41.992;21.438;2024-02-21T22:05:30;7.43;;;5.38;;
82711;SDS011;72433;41.992;21.438;2024-02-21T22:07:56;7.85;;;6.07;;
82711;SDS011;72433;41.992;21.438;2024-02-21T22:10:24;9.10;;;6.07;;
82711;SDS011;72433;41.992;21.438;2024-02-21T22:12:50;8.73;;;5.45;;
82711;SDS011;72433;41.992;21.438;2024-02-21T22:15:16;9.27;;;5.45;;
82711;SDS011;72433;41.992;21.438;2024-02-21T22:17:42;7.13;;;5.53;;
82711;SDS011;72433;41.992;21.438;2024-02-21T22:20:08;9.27;;;5.35;;
82711;SDS011;72433;41.992;21.438;2024-02-21T22:22:35;7.20;;;5.25;;
82711;SDS011;72433;41.992;21.438;2024-02-21T22:25:01;7.47;;;5.57;;
82711;SDS011;72433;41.992;21.438;2024-02-21T22:27:27;7.20;;;5.50;;
82711;SDS011;72433;41.992;21.438;2024-02-21T22:29:55;8.20;;;5.45;;
82711;SDS011;72433;41.992;21.438;2024-02-21T22:32:22;5.47;;;4.68;;
82711;SDS011;72433;41.992;21.438;2024-02-21T22:34:48;6.45;;;4.75;;
82711;SDS011;72433;41.992;21.438;2024-02-21T22:37:14;8.35;;;5.55;;
82711;SDS011;72433;41.992;21.438;2024-02-21T22:39:41;6.95;;;4.88;;
82711;SDS011;72433;41.992;21.438;2024-02-21T22:42:07;7.30;;;4.80;;
82711;SDS011;72433;41.992;21.438;2024-02-21T22:44:33;7.07;;;5.05;;